Terminal Aerodrome Forecast
Issued by NWS

Home | Current Version | Previous Version | Text Only | Print | Product List | Glossary On
Versions: 1 2 3 4 5 6 7 8 9 10 11 12 13 14 15 16 17 18
000
FTUS46 KMFR 270531
TAFOTH
TAF
KOTH 270531Z 2706/2806 36006KT P6SM SCT008 OVC012
     FM270900 VRB03KT 5SM BR OVC008
     FM271700 35010KT P6SM BKN009
     FM272100 35015G23KT P6SM SCT015
     FM280100 35012KT P6SM SCT003 BKN006 OVC010=

USA.gov is the U.S. government's official web portal to all federal, state and local government web resources and services.